Terminal Aerodrome Forecast
Issued by NWS Sterling, VA

Home | Current Version | Previous Version | Text Only | Print | Product List | Glossary On
Versions: 1 2 3 4 5 6 7 8 9 10 11 12 13
941
FTUS41 KLWX 161120
TAFMRB
TAF
KMRB 161120Z 1612/1712 VRB03KT P6SM OVC090
     FM161800 VRB03KT 3SM -SN OVC060
     FM162100 VRB03KT 6SM -SN OVC060
     FM170000 VRB03KT 3SM -SN OVC045
     FM170300 33004KT 1 1/2SM -SN OVC025
     FM170600 32006KT 4SM -SN OVC015
     FM170700 32008KT 4SM -SN OVC025=

USA.gov is the U.S. government's official web portal to all federal, state and local government web resources and services.